createdAt,value
2023-03-17T00:01:54.595Z,12.56
2023-03-17T00:04:24.194Z,12.55
2023-03-17T00:06:54.261Z,12.50
2023-03-17T00:09:22.707Z,12.51
2023-03-17T00:11:51.248Z,12.53
2023-03-17T00:14:19.700Z,12.44
2023-03-17T00:16:50.220Z,12.49
2023-03-17T00:19:20.190Z,12.46
2023-03-17T00:21:48.588Z,12.50
2023-03-17T00:24:18.048Z,12.48
2023-03-17T00:26:46.219Z,12.46
2023-03-17T00:29:16.237Z,12.44
2023-03-17T00:31:45.686Z,12.37
2023-03-17T00:34:18.343Z,12.37
2023-03-17T00:36:50.846Z,12.35
2023-03-17T00:39:20.850Z,12.44
2023-03-17T00:41:49.168Z,12.41
2023-03-17T00:44:17.472Z,12.25
2023-03-17T00:46:46.517Z,12.36
2023-03-17T00:49:20.490Z,12.42
2023-03-17T00:51:49.692Z,12.38
2023-03-17T00:54:18.760Z,12.52
2023-03-17T00:56:49.289Z,12.42
2023-03-17T00:59:26.936Z,12.43
2023-03-17T01:01:55.354Z,12.47
2023-03-17T01:04:24.030Z,12.48
2023-03-17T01:06:53.242Z,12.52
2023-03-17T01:09:25.929Z,12.53
2023-03-17T01:11:55.782Z,12.52
2023-03-17T01:14:24.749Z,12.49
2023-03-17T01:16:55.194Z,12.59
2023-03-17T01:19:23.881Z,12.62
2023-03-17T01:21:52.349Z,12.57
2023-03-17T01:24:21.074Z,12.58
2023-03-17T01:26:49.150Z,12.52
2023-03-17T01:29:18.569Z,12.51
2023-03-17T01:31:47.780Z,12.61
2023-03-17T01:34:15.972Z,12.67
2023-03-17T01:36:44.091Z,12.66
2023-03-17T01:39:12.893Z,12.60
2023-03-17T01:41:41.163Z,12.62
2023-03-17T01:44:16.780Z,12.66
2023-03-17T01:46:47.434Z,12.59
2023-03-17T01:49:29.977Z,12.61
2023-03-17T01:52:02.887Z,12.51
2023-03-17T01:54:38.612Z,12.66
2023-03-17T01:57:12.847Z,12.57
2023-03-17T01:59:45.622Z,12.69
2023-03-17T02:02:19.690Z,12.66
2023-03-17T02:04:47.898Z,12.69
2023-03-17T02:07:15.988Z,12.73
2023-03-17T02:09:44.697Z,12.74
2023-03-17T02:12:13.886Z,12.71
2023-03-17T02:14:42.642Z,12.63
2023-03-17T02:17:11.060Z,12.65
2023-03-17T02:19:40.439Z,12.73
2023-03-17T02:22:10.225Z,12.67
2023-03-17T02:24:43.234Z,12.69
2023-03-17T02:27:14.960Z,12.72
2023-03-17T02:29:46.272Z,12.70
2023-03-17T02:32:16.016Z,12.60
2023-03-17T02:34:44.154Z,12.67
2023-03-17T02:37:14.492Z,12.70
2023-03-17T02:39:42.609Z,12.71
2023-03-17T02:42:11.383Z,12.66
2023-03-17T02:44:39.612Z,12.65
2023-03-17T02:47:08.641Z,12.65
2023-03-17T02:49:38.224Z,12.70
2023-03-17T02:52:07.278Z,12.62
2023-03-17T02:54:37.121Z,12.57
2023-03-17T02:57:07.581Z,12.60
2023-03-17T02:59:35.859Z,12.56
2023-03-17T03:02:03.968Z,12.58
2023-03-17T03:04:32.711Z,12.41
2023-03-17T03:07:00.732Z,12.59
2023-03-17T03:09:29.835Z,12.58
2023-03-17T03:11:59.264Z,12.31
2023-03-17T03:14:27.420Z,12.20
2023-03-17T03:16:55.541Z,12.35
2023-03-17T03:19:24.320Z,12.48
2023-03-17T03:21:52.454Z,12.48
2023-03-17T03:24:20.494Z,12.44
2023-03-17T03:26:48.563Z,12.33
2023-03-17T03:29:18.010Z,12.35
2023-03-17T03:31:48.137Z,12.27
2023-03-17T03:34:16.835Z,12.21
2023-03-17T03:36:44.924Z,12.29
2023-03-17T03:39:14.415Z,12.15
2023-03-17T03:41:42.776Z,12.14
2023-03-17T03:44:10.985Z,12.20
2023-03-17T03:46:40.578Z,12.33
2023-03-17T03:49:08.753Z,12.20
2023-03-17T03:51:36.799Z,12.15
2023-03-17T03:54:05.158Z,12.13
2023-03-17T03:56:33.342Z,12.16
2023-03-17T03:59:01.380Z,12.20
2023-03-17T04:01:29.522Z,12.16
2023-03-17T04:03:58.920Z,12.14
2023-03-17T04:06:27.053Z,12.18
2023-03-17T04:08:57.141Z,12.17
2023-03-17T04:11:26.357Z,12.19
2023-03-17T04:13:54.465Z,12.32
2023-03-17T04:16:22.605Z,12.35
2023-03-17T04:18:51.305Z,12.25
2023-03-17T04:21:21.596Z,12.27
2023-03-17T04:23:50.882Z,12.32
2023-03-17T04:26:19.017Z,12.36
2023-03-17T04:28:47.135Z,12.30
2023-03-17T04:31:15.236Z,12.34
2023-03-17T04:33:43.453Z,12.23
2023-03-17T04:36:19.341Z,12.29
2023-03-17T04:38:49.067Z,12.32
2023-03-17T04:41:17.322Z,12.25
2023-03-17T04:43:45.483Z,12.26
2023-03-17T04:46:13.677Z,12.32
2023-03-17T04:48:41.958Z,12.34
2023-03-17T04:51:11.806Z,12.37
2023-03-17T04:53:40.095Z,12.42
2023-03-17T04:56:09.895Z,12.38
2023-03-17T04:58:38.046Z,12.36
2023-03-17T05:01:07.213Z,12.33
2023-03-17T05:03:35.779Z,12.23
2023-03-17T05:06:05.040Z,12.33
2023-03-17T05:08:33.134Z,12.37
2023-03-17T05:11:01.270Z,12.37
2023-03-17T05:13:30.742Z,12.38
2023-03-17T05:16:00.915Z,12.34
2023-03-17T05:18:29.348Z,12.35
2023-03-17T05:20:57.425Z,12.41
2023-03-17T05:23:25.953Z,12.31
2023-03-17T05:25:54.600Z,12.34
2023-03-17T05:28:22.734Z,12.34
2023-03-17T05:30:52.277Z,12.33
2023-03-17T05:33:21.620Z,12.33
2023-03-17T05:35:50.085Z,12.26
2023-03-17T05:38:18.309Z,12.31
2023-03-17T05:40:47.428Z,12.38
2023-03-17T05:43:15.527Z,12.45
2023-03-17T05:45:43.593Z,12.45
2023-03-17T05:48:13.391Z,12.43
2023-03-17T05:50:42.632Z,12.45
2023-03-17T05:53:11.000Z,12.47
2023-03-17T05:55:39.142Z,12.52
2023-03-17T05:58:07.971Z,12.50
2023-03-17T06:00:36.639Z,12.55
2023-03-17T06:03:05.154Z,12.52
2023-03-17T06:05:34.895Z,12.56
2023-03-17T06:08:03.121Z,12.50
2023-03-17T06:10:31.282Z,12.41
2023-03-17T06:13:01.520Z,12.51
2023-03-17T06:15:31.119Z,12.58
2023-03-17T06:17:59.301Z,12.61
2023-03-17T06:20:27.420Z,12.82
2023-03-17T06:23:04.485Z,12.90
2023-03-17T06:25:33.903Z,12.95
2023-03-17T06:28:03.952Z,12.91
2023-03-17T06:30:33.872Z,12.85
2023-03-17T06:33:02.476Z,12.91
2023-03-17T06:35:31.023Z,12.93
2023-03-17T06:38:02.275Z,12.88
2023-03-17T06:40:31.168Z,12.92
2023-03-17T06:42:59.573Z,12.95
2023-03-17T06:45:27.703Z,13.01
2023-03-17T06:47:56.114Z,13.09
2023-03-17T06:50:24.187Z,13.15
2023-03-17T06:52:52.364Z,13.16
2023-03-17T06:55:22.509Z,13.25
2023-03-17T06:57:51.433Z,13.39
2023-03-17T07:00:21.173Z,13.49
2023-03-17T07:02:49.572Z,13.61
2023-03-17T07:05:17.945Z,13.69
2023-03-17T07:07:46.332Z,13.80
2023-03-17T07:10:15.787Z,13.89
2023-03-17T07:12:45.824Z,14.05
2023-03-17T07:15:14.273Z,14.18
2023-03-17T07:17:42.558Z,14.27
2023-03-17T07:20:12.035Z,14.32
2023-03-17T07:22:40.103Z,14.49
2023-03-17T07:25:09.720Z,14.64
2023-03-17T07:27:37.972Z,14.70
2023-03-17T07:30:09.022Z,14.81
2023-03-17T07:32:37.681Z,14.89
2023-03-17T07:35:08.134Z,14.95
2023-03-17T07:37:36.531Z,15.02
2023-03-17T07:40:06.600Z,15.09
2023-03-17T07:42:34.729Z,15.16
2023-03-17T07:45:03.108Z,15.23
2023-03-17T07:47:32.702Z,15.33
2023-03-17T07:50:00.705Z,15.40
2023-03-17T07:52:28.863Z,15.48
2023-03-17T07:54:58.285Z,15.60
2023-03-17T07:57:27.206Z,15.74
2023-03-17T07:59:55.965Z,15.88
2023-03-17T08:02:24.454Z,15.96
2023-03-17T08:04:54.696Z,16.17
2023-03-17T08:07:22.774Z,16.61
2023-03-17T08:09:51.152Z,17.07
2023-03-17T08:12:20.123Z,17.19
2023-03-17T08:14:48.306Z,17.22
2023-03-17T08:17:16.955Z,17.41
2023-03-17T08:19:45.236Z,17.50
2023-03-17T08:22:14.784Z,17.76
2023-03-17T08:24:43.155Z,17.92
2023-03-17T08:27:11.405Z,18.04
2023-03-17T08:29:39.654Z,18.26
2023-03-17T08:32:08.498Z,18.51
2023-03-17T08:34:36.923Z,18.83
2023-03-17T08:37:05.036Z,18.82
2023-03-17T08:39:35.019Z,18.78
2023-03-17T08:42:03.854Z,18.62
2023-03-17T08:44:31.878Z,18.71
2023-03-17T08:46:59.946Z,18.78
2023-03-17T08:49:28.555Z,18.95
2023-03-17T08:51:56.606Z,19.11
2023-03-17T08:54:24.611Z,19.08
2023-03-17T08:56:54.065Z,19.13
2023-03-17T08:59:22.097Z,19.33
2023-03-17T09:01:50.580Z,19.46
2023-03-17T09:04:18.706Z,19.75
2023-03-17T09:07:02.201Z,19.91
2023-03-17T09:09:32.134Z,20.13
2023-03-17T09:12:01.922Z,20.32
2023-03-17T09:14:35.267Z,20.49
2023-03-17T09:17:11.214Z,20.65
2023-03-17T09:19:40.453Z,20.99
2023-03-17T09:22:09.114Z,21.47
2023-03-17T09:24:37.282Z,21.43
2023-03-17T09:27:07.236Z,21.21
2023-03-17T09:29:35.643Z,21.11
2023-03-17T09:32:03.668Z,21.37
2023-03-17T09:34:31.842Z,21.39
2023-03-17T09:37:00.181Z,21.62
2023-03-17T09:39:28.299Z,22.07
2023-03-17T09:42:14.572Z,22.32
2023-03-17T09:44:55.968Z,22.61
2023-03-17T09:47:47.589Z,23.03
2023-03-17T09:50:20.219Z,23.27
2023-03-17T09:52:51.070Z,23.56
2023-03-17T09:55:26.314Z,24.05
2023-03-17T09:57:56.980Z,24.06
2023-03-17T10:00:29.304Z,23.91
2023-03-17T10:02:57.880Z,23.81
2023-03-17T10:05:28.555Z,24.08
2023-03-17T10:08:06.334Z,24.19
2023-03-17T10:10:43.367Z,24.44
2023-03-17T10:13:23.676Z,24.64
2023-03-17T10:15:55.466Z,24.53
2023-03-17T10:18:27.604Z,24.79
2023-03-17T10:20:58.560Z,24.92
2023-03-17T10:23:31.175Z,24.84
2023-03-17T10:26:03.580Z,25.10
2023-03-17T10:28:36.128Z,25.02
2023-03-17T10:31:16.687Z,24.66
2023-03-17T10:33:45.862Z,24.73
2023-03-17T10:36:16.858Z,24.90
2023-03-17T10:38:54.224Z,25.21
2023-03-17T10:41:22.374Z,25.35
2023-03-17T10:43:51.911Z,25.16
2023-03-17T10:46:23.299Z,25.24
2023-03-17T10:48:54.066Z,25.40
2023-03-17T10:51:29.704Z,25.61
2023-03-17T10:54:01.508Z,26.12
2023-03-17T10:56:34.938Z,26.02
2023-03-17T10:59:09.619Z,25.98
2023-03-17T11:01:41.464Z,25.91
2023-03-17T11:04:31.614Z,26.10
2023-03-17T11:07:01.574Z,26.22
2023-03-17T11:09:35.889Z,26.33
2023-03-17T11:12:06.338Z,26.62
2023-03-17T11:14:36.565Z,26.73
2023-03-17T11:17:17.456Z,26.56
2023-03-17T11:19:53.655Z,26.49
2023-03-17T11:22:30.513Z,26.58
2023-03-17T11:25:06.546Z,26.35
2023-03-17T11:27:37.175Z,26.64
2023-03-17T11:30:17.936Z,26.95
2023-03-17T11:32:53.804Z,27.27
2023-03-17T11:35:47.820Z,27.05
2023-03-17T11:38:24.470Z,27.11
2023-03-17T11:41:35.742Z,27.45
2023-03-17T11:44:24.842Z,27.38
2023-03-17T11:47:03.224Z,27.23
2023-03-17T11:49:37.603Z,27.30
2023-03-17T11:52:15.277Z,27.29
2023-03-17T11:54:51.745Z,26.77
2023-03-17T11:57:24.598Z,26.24
2023-03-17T11:59:56.583Z,26.02
2023-03-17T12:02:31.564Z,25.75
2023-03-17T12:05:05.058Z,25.61
2023-03-17T12:07:37.984Z,25.61
2023-03-17T12:10:15.596Z,25.27
2023-03-17T12:12:48.785Z,25.01
2023-03-17T12:15:24.047Z,24.89
2023-03-17T12:17:58.740Z,25.23
2023-03-17T12:20:33.608Z,25.80
2023-03-17T12:23:07.678Z,26.12
2023-03-17T12:25:39.321Z,26.61
2023-03-17T12:28:15.942Z,26.83
2023-03-17T12:30:50.960Z,26.97
2023-03-17T12:33:25.876Z,27.43
2023-03-17T12:35:54.183Z,28.02
2023-03-17T12:38:29.018Z,28.55
2023-03-17T12:41:24.692Z,28.84
2023-03-17T12:44:04.346Z,28.59
2023-03-17T12:46:55.840Z,28.59
2023-03-17T12:50:06.976Z,28.55
2023-03-17T12:52:55.058Z,28.62
2023-03-17T12:55:27.282Z,28.52
2023-03-17T12:58:03.370Z,28.25
2023-03-17T13:00:33.869Z,27.69
2023-03-17T13:03:23.101Z,26.99
2023-03-17T13:05:55.492Z,26.40
2023-03-17T13:08:28.291Z,26.10
2023-03-17T13:11:18.553Z,25.84
2023-03-17T13:13:59.267Z,25.61
2023-03-17T13:16:33.805Z,25.54
2023-03-17T13:19:21.246Z,25.32
2023-03-17T13:22:24.605Z,25.27
2023-03-17T13:24:54.647Z,25.21
2023-03-17T13:27:43.945Z,25.01
2023-03-17T13:30:53.395Z,24.99
2023-03-17T13:33:24.394Z,24.90
2023-03-17T13:36:22.694Z,24.87
2023-03-17T13:39:24.845Z,24.82
2023-03-17T13:42:19.043Z,24.87
2023-03-17T13:45:06.810Z,24.97
2023-03-17T13:47:38.024Z,25.17
2023-03-17T13:50:10.040Z,25.28
2023-03-17T13:52:44.261Z,25.27
2023-03-17T13:55:38.711Z,25.28
2023-03-17T13:58:34.644Z,25.17
2023-03-17T14:01:07.323Z,25.37
2023-03-17T14:03:41.821Z,25.44
2023-03-17T14:06:13.467Z,25.34
2023-03-17T14:08:46.751Z,25.50
2023-03-17T14:11:24.066Z,25.51
2023-03-17T14:14:08.390Z,25.56
2023-03-17T14:16:43.820Z,25.44
2023-03-17T14:19:18.060Z,25.24
2023-03-17T14:21:46.227Z,24.91
2023-03-17T14:24:21.805Z,24.71
2023-03-17T14:26:51.068Z,24.56
2023-03-17T14:29:23.171Z,24.55
2023-03-17T14:32:06.329Z,24.53
2023-03-17T14:34:34.689Z,24.64
2023-03-17T14:37:04.336Z,24.62
2023-03-17T14:39:32.431Z,24.38
2023-03-17T14:42:02.851Z,24.33
2023-03-17T14:44:38.985Z,24.30
2023-03-17T14:47:13.844Z,24.21
2023-03-17T14:49:41.969Z,24.05
2023-03-17T14:52:22.129Z,23.99
2023-03-17T14:54:53.213Z,23.91
2023-03-17T14:57:24.709Z,23.82
2023-03-17T15:00:01.929Z,23.91
2023-03-17T15:02:34.365Z,24.06
2023-03-17T15:05:07.874Z,24.04
2023-03-17T15:07:39.748Z,23.96
2023-03-17T15:10:16.520Z,23.64
2023-03-17T15:12:46.691Z,23.66
2023-03-17T15:15:23.850Z,23.62
2023-03-17T15:17:53.377Z,23.65
2023-03-17T15:20:21.806Z,23.67
2023-03-17T15:22:56.942Z,23.68
2023-03-17T15:25:28.947Z,23.52
2023-03-17T15:27:57.276Z,23.54
2023-03-17T15:30:37.355Z,23.45
2023-03-17T15:33:21.095Z,23.40
2023-03-17T15:35:49.470Z,23.38
2023-03-17T15:38:17.573Z,23.25
2023-03-17T15:40:45.736Z,23.22
2023-03-17T15:43:16.341Z,23.17
2023-03-17T15:45:47.471Z,23.15
2023-03-17T15:48:20.442Z,22.99
2023-03-17T15:50:49.612Z,22.90
2023-03-17T15:53:17.972Z,22.85
2023-03-17T15:55:46.191Z,22.85
2023-03-17T15:58:14.321Z,22.81
2023-03-17T16:00:42.995Z,22.75
2023-03-17T16:03:19.768Z,22.66
2023-03-17T16:05:48.023Z,22.64
2023-03-17T16:08:17.917Z,22.72
2023-03-17T16:10:46.739Z,22.69
2023-03-17T16:13:14.970Z,22.55
2023-03-17T16:15:44.888Z,22.56
2023-03-17T16:18:18.850Z,22.51
2023-03-17T16:20:48.925Z,22.43
2023-03-17T16:23:19.221Z,22.46
2023-03-17T16:25:47.805Z,22.44
2023-03-17T16:28:18.012Z,22.37
2023-03-17T16:30:47.428Z,22.31
2023-03-17T16:33:20.744Z,22.23
2023-03-17T16:35:49.636Z,22.13
2023-03-17T16:38:19.757Z,22.18
2023-03-17T16:40:49.781Z,22.19
2023-03-17T16:43:25.526Z,22.18
2023-03-17T16:45:55.424Z,22.08
2023-03-17T16:48:25.201Z,22.09
2023-03-17T16:50:53.587Z,22.05
2023-03-17T16:53:21.831Z,22.01
2023-03-17T16:55:50.842Z,21.97
2023-03-17T16:58:21.593Z,21.93
2023-03-17T17:00:51.404Z,21.91
2023-03-17T17:03:19.603Z,21.82
2023-03-17T17:05:49.232Z,21.77
2023-03-17T17:08:17.363Z,21.75
2023-03-17T17:10:45.588Z,21.73
2023-03-17T17:13:14.553Z,21.73
2023-03-17T17:15:43.539Z,21.72
2023-03-17T17:18:15.651Z,21.65
2023-03-17T17:20:45.230Z,21.60
2023-03-17T17:23:16.617Z,21.51
2023-03-17T17:25:44.968Z,21.42
2023-03-17T17:28:17.398Z,21.33
2023-03-17T17:30:47.910Z,21.23
2023-03-17T17:33:16.937Z,21.11
2023-03-17T17:35:46.250Z,21.00
2023-03-17T17:38:21.943Z,20.88
2023-03-17T17:40:50.791Z,20.79
2023-03-17T17:43:19.242Z,20.73
2023-03-17T17:45:49.608Z,20.64
2023-03-17T17:48:18.064Z,20.58
2023-03-17T17:50:47.344Z,20.57
2023-03-17T17:53:15.734Z,20.51
2023-03-17T17:55:46.995Z,20.48
2023-03-17T17:58:17.034Z,20.43
2023-03-17T18:00:45.431Z,20.35
2023-03-17T18:03:13.506Z,20.29
2023-03-17T18:05:41.841Z,20.24
2023-03-17T18:08:11.763Z,20.17
2023-03-17T18:10:39.819Z,20.10
2023-03-17T18:13:09.663Z,20.02
2023-03-17T18:15:37.884Z,19.95
2023-03-17T18:18:06.804Z,19.90
2023-03-17T18:20:35.362Z,19.85
2023-03-17T18:23:03.833Z,19.81
2023-03-17T18:25:38.948Z,19.76
2023-03-17T18:28:07.046Z,19.73
2023-03-17T18:30:36.576Z,19.70
2023-03-17T18:33:08.677Z,19.63
2023-03-17T18:35:37.344Z,19.59
2023-03-17T18:38:09.086Z,19.56
2023-03-17T18:40:37.670Z,19.53
2023-03-17T18:43:06.102Z,19.47
2023-03-17T18:45:34.285Z,19.43
2023-03-17T18:48:03.878Z,19.40
2023-03-17T18:50:32.148Z,19.38
2023-03-17T18:53:00.362Z,19.38
2023-03-17T18:55:28.466Z,19.33
2023-03-17T18:57:56.532Z,19.31
2023-03-17T19:00:26.229Z,19.27
2023-03-17T19:02:54.651Z,19.23
2023-03-17T19:05:24.461Z,19.20
2023-03-17T19:07:52.575Z,19.16
2023-03-17T19:10:21.765Z,19.12
2023-03-17T19:12:50.660Z,19.09
2023-03-17T19:15:19.563Z,19.07
2023-03-17T19:17:47.707Z,19.03
2023-03-17T19:20:15.939Z,19.01
2023-03-17T19:22:45.526Z,18.99
2023-03-17T19:25:13.609Z,18.98
2023-03-17T19:27:41.632Z,18.95
2023-03-17T19:30:10.936Z,18.93
2023-03-17T19:32:39.014Z,18.91
2023-03-17T19:35:08.406Z,18.86
2023-03-17T19:37:38.065Z,18.83
2023-03-17T19:40:10.583Z,18.83
2023-03-17T19:42:38.609Z,18.82
2023-03-17T19:45:07.989Z,18.82
2023-03-17T19:47:36.187Z,18.84
2023-03-17T19:50:04.392Z,18.81
2023-03-17T19:52:32.441Z,18.82
2023-03-17T19:55:00.518Z,18.80
2023-03-17T19:57:31.186Z,18.80
2023-03-17T19:59:59.297Z,18.78
2023-03-17T20:02:27.380Z,18.78
2023-03-17T20:04:55.657Z,18.76
2023-03-17T20:07:23.818Z,18.70
2023-03-17T20:09:53.357Z,18.69
2023-03-17T20:12:21.742Z,18.69
2023-03-17T20:14:51.671Z,18.69
2023-03-17T20:17:20.691Z,18.67
2023-03-17T20:19:48.804Z,18.62
2023-03-17T20:22:17.170Z,18.59
2023-03-17T20:24:45.774Z,18.57
2023-03-17T20:27:15.385Z,18.54
2023-03-17T20:29:43.985Z,18.55
2023-03-17T20:32:14.940Z,18.54
2023-03-17T20:34:43.699Z,18.51
2023-03-17T20:37:14.151Z,18.48
2023-03-17T20:39:42.399Z,18.46
2023-03-17T20:42:14.576Z,18.43
2023-03-17T20:44:43.013Z,18.40
2023-03-17T20:47:11.448Z,18.39
2023-03-17T20:49:42.692Z,18.34
2023-03-17T20:52:13.344Z,18.32
2023-03-17T20:54:41.688Z,18.29
2023-03-17T20:57:14.052Z,18.28
2023-03-17T20:59:43.862Z,18.26
2023-03-17T21:02:15.776Z,18.24
2023-03-17T21:04:47.667Z,18.24
2023-03-17T21:07:17.007Z,18.24
2023-03-17T21:09:45.636Z,18.28
2023-03-17T21:12:15.436Z,18.25
2023-03-17T21:14:44.163Z,18.29
2023-03-17T21:17:12.727Z,18.26
2023-03-17T21:19:41.763Z,18.23
2023-03-17T21:22:12.502Z,18.21
2023-03-17T21:24:41.389Z,18.18
2023-03-17T21:27:12.024Z,18.18
2023-03-17T21:29:40.991Z,18.17
2023-03-17T21:32:09.507Z,18.13
2023-03-17T21:34:38.253Z,18.10
2023-03-17T21:37:06.473Z,18.05
2023-03-17T21:39:36.274Z,17.95
2023-03-17T21:42:05.281Z,17.85
2023-03-17T21:44:33.482Z,17.81
2023-03-17T21:47:02.960Z,17.81
2023-03-17T21:49:31.164Z,17.81
2023-03-17T21:51:59.280Z,17.82
2023-03-17T21:54:28.398Z,17.85
2023-03-17T21:56:58.361Z,17.85
2023-03-17T21:59:29.303Z,17.81
2023-03-17T22:01:57.871Z,17.82
2023-03-17T22:04:26.355Z,17.83
2023-03-17T22:06:55.615Z,17.87
2023-03-17T22:09:23.689Z,17.90
2023-03-17T22:11:51.730Z,17.91
2023-03-17T22:14:21.142Z,17.90
2023-03-17T22:16:49.778Z,17.89
2023-03-17T22:19:21.107Z,17.88
2023-03-17T22:21:50.006Z,17.89
2023-03-17T22:24:18.148Z,17.96
2023-03-17T22:26:46.682Z,17.98
2023-03-17T22:29:15.078Z,18.03
2023-03-17T22:31:44.608Z,18.04
2023-03-17T22:34:12.720Z,18.02
2023-03-17T22:36:41.202Z,18.03
2023-03-17T22:39:10.553Z,17.99
2023-03-17T22:41:38.932Z,17.97
2023-03-17T22:44:08.407Z,17.98
2023-03-17T22:46:37.584Z,17.98
2023-03-17T22:49:07.842Z,17.96
2023-03-17T22:51:37.002Z,18.03
2023-03-17T22:54:05.678Z,18.08
2023-03-17T22:56:33.777Z,18.10
2023-03-17T22:59:01.927Z,18.05
2023-03-17T23:01:30.062Z,18.04
2023-03-17T23:03:58.610Z,18.13
2023-03-17T23:06:28.028Z,18.22
2023-03-17T23:08:56.320Z,18.26
2023-03-17T23:11:26.188Z,18.34
2023-03-17T23:13:55.363Z,18.34
2023-03-17T23:16:23.461Z,18.37
2023-03-17T23:18:52.685Z,18.41
2023-03-17T23:21:23.926Z,18.41
2023-03-17T23:23:53.325Z,18.48
2023-03-17T23:26:21.624Z,18.55
2023-03-17T23:28:49.618Z,18.53
2023-03-17T23:31:19.429Z,18.57
2023-03-17T23:33:47.965Z,18.65
2023-03-17T23:36:17.035Z,18.62
2023-03-17T23:38:46.767Z,18.55
2023-03-17T23:41:17.490Z,18.56
2023-03-17T23:43:46.874Z,18.59
2023-03-17T23:46:15.285Z,18.56
2023-03-17T23:48:43.558Z,18.57
2023-03-17T23:51:12.913Z,18.64
2023-03-17T23:53:41.718Z,18.66
2023-03-17T23:56:11.204Z,18.65
2023-03-17T23:58:41.481Z,18.72
